Time;durP1;ratioP1;P1;durP2;ratioP2;P2;SDS_P1;SDS_P2;PMS_P1;PMS_P2;Temp;Humidity;BMP_temperature;BMP_pressure;BME280_temperature;BME280_humidity;BME280_pressure;Samples;Min_cycle;Max_cycle;Signal;HPM_P1;HPM_P2
2024/01/23 00:00:08;;;;;;;;;;;16.90;51.30;;;;;;5059316;28;42917;-78
2024/01/23 00:02:34;;;;;;;;;;;17.00;50.90;;;;;;5056505;28;43978;-78
2024/01/23 00:04:59;;;;;;;;;;;16.90;50.50;;;;;;5055519;28;42991;-77
2024/01/23 00:07:25;;;;;;;;;;;16.90;50.60;;;;;;5056886;28;43579;-78
2024/01/23 00:09:50;;;;;;;;;;;16.90;50.50;;;;;;5090679;27;43114;-75
2024/01/23 00:12:16;;;;;;;;;;;16.90;50.00;;;;;;5050744;28;43092;-77
2024/01/23 00:14:42;;;;;;;;;;;16.90;50.10;;;;;;5053776;28;42933;-75
2024/01/23 00:17:08;;;;;;;;;;;17.00;51.40;;;;;;5055763;28;43000;-77
2024/01/23 00:19:33;;;;;;;;;;;16.90;50.60;;;;;;5069439;22;43048;-77
2024/01/23 00:21:59;;;;;;;;;;;16.90;50.50;;;;;;5085753;28;43515;-76
2024/01/23 00:24:25;;;;;;;;;;;16.90;50.50;;;;;;5085393;28;43792;-78
2024/01/23 00:26:50;;;;;;;;;;;16.90;50.60;;;;;;5086419;28;42950;-78
2024/01/23 00:29:16;;;;;;;;;;;17.00;50.60;;;;;;5086234;28;42846;-77
2024/01/23 00:31:42;;;;;;;;;;;16.90;50.60;;;;;;5084722;27;42822;-78
2024/01/23 00:34:07;;;;;;;;;;;16.90;50.60;;;;;;5082432;28;42942;-76
2024/01/23 00:36:33;;;;;;;;;;;16.90;50.60;;;;;;5084697;28;43399;-77
2024/01/23 00:38:58;;;;;;;;;;;16.90;50.60;;;;;;5086152;28;42941;-78
2024/01/23 00:41:24;;;;;;;;;;;16.90;50.70;;;;;;5087426;28;42876;-76
2024/01/23 00:43:49;;;;;;;;;;;16.90;50.70;;;;;;5087187;28;42881;-78
2024/01/23 00:46:15;;;;;;;;;;;16.90;50.80;;;;;;5085156;28;44001;-78
2024/01/23 00:48:40;;;;;;;;;;;16.90;50.60;;;;;;5084753;28;42937;-78
2024/01/23 00:51:06;;;;;;;;;;;16.90;50.70;;;;;;5083490;28;43439;-77
2024/01/23 00:53:31;;;;;;;;;;;16.90;50.60;;;;;;5082445;27;42998;-75
2024/01/23 00:55:59;;;;;;;;;;;16.90;50.70;;;;;;5084868;27;42944;-77
2024/01/23 00:58:25;;;;;;;;;;;17.00;50.70;;;;;;5061332;27;43000;-77
2024/01/23 01:00:50;;;;;;;;;;;16.90;50.70;;;;;;5064089;28;43501;-78
2024/01/23 01:03:16;;;;;;;;;;;16.90;50.70;;;;;;5082705;28;43019;-77
2024/01/23 01:05:42;;;;;;;;;;;16.90;50.70;;;;;;5081633;28;43174;-78
2024/01/23 01:08:08;;;;;;;;;;;16.90;50.80;;;;;;5082088;28;43087;-78
2024/01/23 01:10:33;;;;;;;;;;;16.90;50.70;;;;;;5083401;27;43058;-77
2024/01/23 01:12:59;;;;;;;;;;;16.90;50.80;;;;;;5084101;28;42920;-78
2024/01/23 01:15:25;;;;;;;;;;;16.90;50.80;;;;;;5083621;28;43233;-75
2024/01/23 01:17:50;;;;;;;;;;;16.90;50.70;;;;;;5085144;27;42992;-78
2024/01/23 01:20:16;;;;;;;;;;;16.90;50.30;;;;;;5083197;27;43991;-76
2024/01/23 01:22:41;;;;;;;;;;;16.90;50.80;;;;;;5084086;28;42956;-78
2024/01/23 01:25:08;;;;;;;;;;;16.90;50.70;;;;;;5084143;27;42909;-75
2024/01/23 01:27:34;;;;;;;;;;;16.90;50.80;;;;;;5084114;27;42976;-76
2024/01/23 01:29:59;;;;;;;;;;;16.90;50.80;;;;;;5082890;28;42925;-78
2024/01/23 01:32:25;;;;;;;;;;;16.90;50.90;;;;;;5083053;28;43008;-75
2024/01/23 01:34:50;;;;;;;;;;;16.90;50.80;;;;;;5083005;28;43525;-78
2024/01/23 01:37:16;;;;;;;;;;;16.90;50.90;;;;;;5084636;28;42962;-78
2024/01/23 01:39:41;;;;;;;;;;;16.80;50.80;;;;;;5082618;28;43538;-76
2024/01/23 01:42:07;;;;;;;;;;;16.90;50.90;;;;;;5084505;28;42940;-74
2024/01/23 01:44:33;;;;;;;;;;;16.90;50.80;;;;;;5084075;28;42987;-77
2024/01/23 01:46:59;;;;;;;;;;;16.80;50.80;;;;;;5083428;27;43029;-75
2024/01/23 01:49:25;;;;;;;;;;;16.90;50.90;;;;;;5086387;27;44569;-76
2024/01/23 01:51:51;;;;;;;;;;;16.90;50.80;;;;;;5084444;28;42848;-78
2024/01/23 01:54:17;;;;;;;;;;;16.90;50.80;;;;;;5083751;27;43059;-74
2024/01/23 01:56:43;;;;;;;;;;;16.80;50.80;;;;;;5083367;27;43084;-79
2024/01/23 01:59:09;;;;;;;;;;;16.80;50.80;;;;;;5084149;27;43594;-75
2024/01/23 02:01:35;;;;;;;;;;;16.80;50.90;;;;;;5082743;27;43042;-78
2024/01/23 02:04:01;;;;;;;;;;;16.80;50.80;;;;;;5084427;28;42952;-77
2024/01/23 02:06:26;;;;;;;;;;;16.80;50.90;;;;;;5086768;27;43311;-75
2024/01/23 02:08:53;;;;;;;;;;;16.80;50.80;;;;;;5087176;28;42818;-77
2024/01/23 02:11:18;;;;;;;;;;;16.80;50.80;;;;;;5084739;28;43211;-77
2024/01/23 02:13:44;;;;;;;;;;;16.80;50.80;;;;;;5086547;28;43335;-77
2024/01/23 02:16:10;;;;;;;;;;;16.80;50.90;;;;;;5086497;28;43176;-78
2024/01/23 02:18:36;;;;;;;;;;;16.80;50.90;;;;;;5085988;27;42983;-78
2024/01/23 02:21:01;;;;;;;;;;;16.80;50.90;;;;;;5087339;28;43010;-77
2024/01/23 02:23:30;;;;;;;;;;;16.90;51.00;;;;;;5086408;28;43159;-77
2024/01/23 02:25:56;;;;;;;;;;;16.80;51.00;;;;;;5086919;27;42974;-76
2024/01/23 02:28:21;;;;;;;;;;;16.80;51.00;;;;;;5087029;28;43447;-78
2024/01/23 02:30:47;;;;;;;;;;;16.80;51.00;;;;;;5087065;28;42942;-78
2024/01/23 02:33:13;;;;;;;;;;;16.90;51.00;;;;;;5084413;28;43517;-77
2024/01/23 02:35:39;;;;;;;;;;;16.80;51.10;;;;;;5086794;27;42884;-77
2024/01/23 02:38:05;;;;;;;;;;;16.80;51.10;;;;;;5086660;28;43456;-78
2024/01/23 02:40:30;;;;;;;;;;;16.90;51.10;;;;;;5086805;27;42964;-78
2024/01/23 02:42:56;;;;;;;;;;;16.80;51.00;;;;;;5084206;28;43107;-78
2024/01/23 02:45:23;;;;;;;;;;;16.90;51.10;;;;;;5086444;28;42928;-78
2024/01/23 02:47:48;;;;;;;;;;;16.80;51.00;;;;;;5085715;28;43451;-78
2024/01/23 02:50:14;;;;;;;;;;;16.80;51.00;;;;;;5086599;28;43091;-78
2024/01/23 02:52:39;;;;;;;;;;;16.90;51.20;;;;;;5085637;28;43977;-75
2024/01/23 02:55:05;;;;;;;;;;;16.90;51.10;;;;;;5087112;28;42801;-78
2024/01/23 02:57:30;;;;;;;;;;;16.80;51.10;;;;;;5085878;27;43858;-77
2024/01/23 02:59:56;;;;;;;;;;;16.80;51.10;;;;;;5090925;28;42777;-78
2024/01/23 03:02:22;;;;;;;;;;;16.80;51.10;;;;;;5090646;28;42992;-78
2024/01/23 03:04:48;;;;;;;;;;;16.80;51.10;;;;;;5086707;27;43131;-78
2024/01/23 03:07:14;;;;;;;;;;;16.90;51.20;;;;;;5085627;28;42908;-77
2024/01/23 03:09:41;;;;;;;;;;;16.80;51.20;;;;;;5086608;28;42943;-77
2024/01/23 03:12:16;;;;;;;;;;;16.80;51.20;;;;;;5078242;27;43537;-74
2024/01/23 03:14:45;;;;;;;;;;;16.90;51.20;;;;;;5084756;27;43318;-77
2024/01/23 03:17:11;;;;;;;;;;;16.80;51.20;;;;;;5085362;28;42812;-79
2024/01/23 03:19:36;;;;;;;;;;;16.80;51.30;;;;;;5085628;27;42997;-77
2024/01/23 03:22:03;;;;;;;;;;;16.80;51.30;;;;;;5086231;27;42931;-79
2024/01/23 03:24:28;;;;;;;;;;;16.90;51.30;;;;;;5083291;28;43004;-78
2024/01/23 03:26:54;;;;;;;;;;;16.80;51.20;;;;;;5086150;28;43038;-79
2024/01/23 03:29:19;;;;;;;;;;;16.80;51.20;;;;;;5079673;28;43071;-79
2024/01/23 03:31:45;;;;;;;;;;;16.80;51.20;;;;;;5082151;28;43546;-80
2024/01/23 03:34:10;;;;;;;;;;;16.80;51.20;;;;;;5084810;27;42974;-76
2024/01/23 03:36:36;;;;;;;;;;;16.80;51.20;;;;;;5085506;27;42980;-75
2024/01/23 03:39:01;;;;;;;;;;;16.80;51.20;;;;;;5085328;28;43243;-79
2024/01/23 03:41:27;;;;;;;;;;;16.80;51.20;;;;;;5085295;28;43340;-80
2024/01/23 03:43:52;;;;;;;;;;;16.80;51.50;;;;;;5085257;28;43035;-78
2024/01/23 03:46:18;;;;;;;;;;;16.80;51.40;;;;;;5084038;28;42995;-80
2024/01/23 03:48:43;;;;;;;;;;;16.80;51.30;;;;;;5082229;28;43258;-79
2024/01/23 03:51:09;;;;;;;;;;;16.80;51.30;;;;;;5085163;28;43535;-79
2024/01/23 03:53:34;;;;;;;;;;;16.80;51.30;;;;;;5084142;28;43067;-80
2024/01/23 03:56:00;;;;;;;;;;;16.70;51.40;;;;;;5085061;28;43710;-79
2024/01/23 03:58:25;;;;;;;;;;;16.80;51.40;;;;;;5084243;28;43243;-80
2024/01/23 04:00:51;;;;;;;;;;;16.80;51.40;;;;;;5099902;27;44171;-80
2024/01/23 04:03:16;;;;;;;;;;;16.80;51.40;;;;;;5084766;28;43020;-79
2024/01/23 04:05:42;;;;;;;;;;;16.80;51.40;;;;;;5072189;28;43894;-80
2024/01/23 04:08:08;;;;;;;;;;;16.80;51.40;;;;;;5068529;28;43106;-79
2024/01/23 04:10:33;;;;;;;;;;;16.80;51.40;;;;;;5064723;28;43621;-79
2024/01/23 04:12:59;;;;;;;;;;;16.80;51.40;;;;;;5064888;28;43092;-79
2024/01/23 04:15:24;;;;;;;;;;;16.80;51.40;;;;;;5077603;28;42889;-79
2024/01/23 04:17:50;;;;;;;;;;;16.80;51.40;;;;;;5084434;28;43011;-80
2024/01/23 04:20:16;;;;;;;;;;;16.80;51.40;;;;;;5084067;27;43650;-78
2024/01/23 04:22:41;;;;;;;;;;;16.80;51.50;;;;;;5085651;28;43144;-79
2024/01/23 04:25:09;;;;;;;;;;;16.80;51.50;;;;;;5084821;28;42913;-78
2024/01/23 04:27:35;;;;;;;;;;;16.80;51.50;;;;;;5085181;27;43045;-79
2024/01/23 04:30:00;;;;;;;;;;;16.80;51.50;;;;;;5084920;28;42950;-78
2024/01/23 04:32:26;;;;;;;;;;;16.70;51.40;;;;;;5084254;28;42893;-78
2024/01/23 04:34:51;;;;;;;;;;;16.70;51.50;;;;;;5083570;28;42736;-79
2024/01/23 04:37:17;;;;;;;;;;;16.80;51.50;;;;;;5083566;28;42923;-79
2024/01/23 04:39:42;;;;;;;;;;;16.80;51.40;;;;;;5084244;28;43042;-80
2024/01/23 04:42:08;;;;;;;;;;;16.70;51.40;;;;;;5081267;28;42921;-80
2024/01/23 04:44:33;;;;;;;;;;;16.80;51.50;;;;;;5082540;28;43536;-80
2024/01/23 04:46:59;;;;;;;;;;;16.70;51.40;;;;;;5084624;28;42768;-79
2024/01/23 04:49:24;;;;;;;;;;;16.80;51.50;;;;;;5084469;28;42920;-80
2024/01/23 04:51:50;;;;;;;;;;;16.70;51.40;;;;;;5081539;28;43122;-79
2024/01/23 04:54:15;;;;;;;;;;;16.80;51.50;;;;;;5063953;28;43765;-79
2024/01/23 04:56:41;;;;;;;;;;;16.80;51.50;;;;;;5067901;28;42908;-76
2024/01/23 04:59:06;;;;;;;;;;;16.80;51.50;;;;;;5080140;28;43733;-78
2024/01/23 05:01:32;;;;;;;;;;;16.80;51.50;;;;;;5080327;28;42975;-80
2024/01/23 05:03:57;;;;;;;;;;;16.70;51.40;;;;;;5080605;28;42967;-76
2024/01/23 05:06:23;;;;;;;;;;;16.70;51.40;;;;;;5081041;27;43035;-77
2024/01/23 05:08:49;;;;;;;;;;;16.70;51.50;;;;;;5075975;28;44251;-78
2024/01/23 05:11:14;;;;;;;;;;;16.70;51.50;;;;;;5074984;28;43147;-78
2024/01/23 05:13:43;;;;;;;;;;;16.70;51.40;;;;;;5074898;28;43054;-79
2024/01/23 05:16:08;;;;;;;;;;;16.70;51.40;;;;;;5075869;28;42925;-79
2024/01/23 05:18:34;;;;;;;;;;;16.70;51.50;;;;;;5073392;28;43470;-76
2024/01/23 05:20:59;;;;;;;;;;;16.70;51.50;;;;;;5077769;28;42988;-79
2024/01/23 05:23:25;;;;;;;;;;;16.70;51.50;;;;;;5077545;28;42952;-78
2024/01/23 05:25:51;;;;;;;;;;;16.70;51.50;;;;;;5073082;28;43059;-75
2024/01/23 05:28:16;;;;;;;;;;;16.70;51.50;;;;;;5074061;28;42966;-75
2024/01/23 05:30:42;;;;;;;;;;;16.70;51.50;;;;;;5074919;28;42886;-79
2024/01/23 05:33:07;;;;;;;;;;;16.70;51.50;;;;;;5073336;28;43018;-78
2024/01/23 05:35:33;;;;;;;;;;;16.70;51.60;;;;;;5074652;27;43576;-75
2024/01/23 05:37:59;;;;;;;;;;;16.70;51.50;;;;;;5077963;27;43188;-76
2024/01/23 05:40:24;;;;;;;;;;;16.70;51.60;;;;;;5080110;28;43062;-75
2024/01/23 05:42:50;;;;;;;;;;;16.70;51.50;;;;;;5084816;28;43052;-76
2024/01/23 05:45:15;;;;;;;;;;;16.70;51.50;;;;;;5079832;28;43301;-79
2024/01/23 05:47:41;;;;;;;;;;;16.70;51.60;;;;;;5085210;28;42901;-75
2024/01/23 05:50:07;;;;;;;;;;;16.70;51.70;;;;;;5081131;28;42967;-76
2024/01/23 05:52:32;;;;;;;;;;;16.70;51.80;;;;;;5078284;28;43588;-79
2024/01/23 05:54:59;;;;;;;;;;;16.70;51.90;;;;;;5074498;28;42894;-76
2024/01/23 05:57:25;;;;;;;;;;;16.70;52.00;;;;;;5077264;28;43338;-75
2024/01/23 05:59:50;;;;;;;;;;;16.70;51.90;;;;;;5075818;28;43415;-75
2024/01/23 06:02:16;;;;;;;;;;;16.70;52.00;;;;;;5078048;28;43004;-79
2024/01/23 06:04:42;;;;;;;;;;;16.70;52.00;;;;;;5076964;28;43013;-79
2024/01/23 06:07:08;;;;;;;;;;;16.70;52.00;;;;;;5076252;28;43496;-74
2024/01/23 06:09:33;;;;;;;;;;;16.60;51.60;;;;;;5078268;28;43246;-79
2024/01/23 06:11:59;;;;;;;;;;;16.70;52.10;;;;;;5081027;28;43073;-76
2024/01/23 06:14:24;;;;;;;;;;;16.70;52.20;;;;;;5081646;28;42981;-79
2024/01/23 06:16:50;;;;;;;;;;;16.70;52.20;;;;;;5078353;28;43064;-76
2024/01/23 06:19:17;;;;;;;;;;;16.70;52.20;;;;;;5075759;28;42901;-77
2024/01/23 06:21:42;;;;;;;;;;;16.70;52.20;;;;;;5076139;27;43210;-76
2024/01/23 06:24:08;;;;;;;;;;;16.70;52.30;;;;;;5078380;28;43051;-74
2024/01/23 06:26:35;;;;;;;;;;;16.70;52.20;;;;;;5076881;28;43303;-79
2024/01/23 06:29:01;;;;;;;;;;;16.30;52.00;;;;;;5075884;28;42918;-79
2024/01/23 06:31:27;;;;;;;;;;;16.70;52.30;;;;;;5074973;27;43343;-78
2024/01/23 06:33:53;;;;;;;;;;;16.70;52.20;;;;;;5077202;27;43355;-76
2024/01/23 06:36:19;;;;;;;;;;;16.70;52.30;;;;;;5076997;28;43534;-80
2024/01/23 06:38:44;;;;;;;;;;;16.70;52.20;;;;;;5076457;27;42846;-78
2024/01/23 06:41:10;;;;;;;;;;;16.70;52.30;;;;;;5074878;28;42906;-79
2024/01/23 06:43:36;;;;;;;;;;;16.70;52.20;;;;;;5080654;28;42928;-79
2024/01/23 06:46:02;;;;;;;;;;;16.70;52.30;;;;;;5086745;28;43012;-80
2024/01/23 06:48:29;;;;;;;;;;;16.70;52.20;;;;;;5082548;27;43008;-76
2024/01/23 06:50:55;;;;;;;;;;;16.70;52.20;;;;;;5078311;28;44505;-79
2024/01/23 06:53:20;;;;;;;;;;;16.70;52.20;;;;;;5076383;28;42953;-79
2024/01/23 06:55:46;;;;;;;;;;;16.70;52.30;;;;;;5075365;28;43805;-74
2024/01/23 06:58:11;;;;;;;;;;;16.70;52.30;;;;;;5075440;28;42984;-78
2024/01/23 07:00:37;;;;;;;;;;;16.70;52.30;;;;;;5075789;28;43732;-77
2024/01/23 07:03:03;;;;;;;;;;;16.70;49.50;;;;;;5066544;28;42960;-78
2024/01/23 07:05:28;;;;;;;;;;;16.50;43.20;;;;;;5066791;28;43576;-79
2024/01/23 07:07:54;;;;;;;;;;;16.30;40.60;;;;;;5067312;28;42806;-79
2024/01/23 07:10:19;;;;;;;;;;;16.10;42.40;;;;;;5076365;28;42986;-78
2024/01/23 07:12:45;;;;;;;;;;;16.00;44.90;;;;;;5086150;28;42974;-77
2024/01/23 07:15:10;;;;;;;;;;;15.90;38.30;;;;;;5086073;28;43568;-77
2024/01/23 07:17:36;;;;;;;;;;;15.60;36.50;;;;;;5086397;28;42748;-77
2024/01/23 07:20:02;;;;;;;;;;;15.30;37.10;;;;;;5084043;28;42899;-78
2024/01/23 07:22:28;;;;;;;;;;;15.10;35.60;;;;;;5078617;27;43055;-76
2024/01/23 07:24:53;;;;;;;;;;;15.00;34.40;;;;;;5074887;28;43838;-77
2024/01/23 07:27:20;;;;;;;;;;;14.80;33.80;;;;;;5076398;28;42991;-80
2024/01/23 07:29:45;;;;;;;;;;;14.60;33.70;;;;;;5076292;28;42927;-79
2024/01/23 07:32:11;;;;;;;;;;;14.40;33.60;;;;;;5074726;27;42922;-80
2024/01/23 07:34:36;;;;;;;;;;;14.20;33.50;;;;;;5075482;28;44896;-78
2024/01/23 07:37:02;;;;;;;;;;;14.00;33.60;;;;;;5075449;28;42979;-77
2024/01/23 07:39:29;;;;;;;;;;;13.90;33.60;;;;;;5083009;28;43843;-75
2024/01/23 07:41:54;;;;;;;;;;;13.90;33.90;;;;;;5082118;28;42940;-79
2024/01/23 07:44:20;;;;;;;;;;;13.80;33.70;;;;;;5066812;28;43139;-75
2024/01/23 07:46:47;;;;;;;;;;;13.80;34.00;;;;;;5069331;28;42945;-76
2024/01/23 07:49:13;;;;;;;;;;;13.80;33.80;;;;;;5065487;28;42961;-76
2024/01/23 07:51:49;;;;;;;;;;;13.70;34.00;;;;;;5075929;28;43095;-79
2024/01/23 07:54:15;;;;;;;;;;;13.80;33.70;;;;;;5074157;28;43680;-78
2024/01/23 07:56:40;;;;;;;;;;;13.80;33.70;;;;;;5073687;28;42983;-77
2024/01/23 07:59:06;;;;;;;;;;;13.80;33.60;;;;;;5073545;28;42948;-78
2024/01/23 08:01:31;;;;;;;;;;;13.80;33.30;;;;;;5080998;27;42945;-77
2024/01/23 08:03:57;;;;;;;;;;;13.80;34.10;;;;;;5080661;27;43570;-76
2024/01/23 08:06:23;;;;;;;;;;;13.90;38.20;;;;;;5076772;27;42967;-77
2024/01/23 08:08:49;;;;;;;;;;;13.90;38.40;;;;;;5078632;27;42995;-77
2024/01/23 08:11:15;;;;;;;;;;;13.80;38.50;;;;;;5085432;27;42947;-76
2024/01/23 08:13:40;;;;;;;;;;;13.90;38.90;;;;;;5082116;28;42959;-76
2024/01/23 08:16:09;;;;;;;;;;;13.90;38.70;;;;;;5084959;28;42960;-77
2024/01/23 08:18:36;;;;;;;;;;;13.80;38.00;;;;;;5084516;27;43404;-76
2024/01/23 08:21:02;;;;;;;;;;;14.00;40.90;;;;;;5080755;28;43427;-78
2024/01/23 08:23:27;;;;;;;;;;;14.30;41.40;;;;;;5081120;27;43551;-78
2024/01/23 08:25:53;;;;;;;;;;;14.40;42.00;;;;;;5077319;28;43107;-77
2024/01/23 08:28:19;;;;;;;;;;;14.50;42.10;;;;;;5085822;28;42938;-78
2024/01/23 08:30:45;;;;;;;;;;;14.80;43.40;;;;;;5085780;27;42956;-79
2024/01/23 08:33:17;;;;;;;;;;;15.00;44.30;;;;;;5086039;28;44132;-79
2024/01/23 08:35:42;;;;;;;;;;;15.20;44.60;;;;;;5086145;27;42976;-79
2024/01/23 08:38:09;;;;;;;;;;;15.20;44.50;;;;;;5083801;28;44646;-77
2024/01/23 08:40:34;;;;;;;;;;;15.20;44.40;;;;;;5085459;27;42787;-78
2024/01/23 08:43:00;;;;;;;;;;;15.40;44.50;;;;;;5085840;27;43529;-78
2024/01/23 08:45:25;;;;;;;;;;;15.40;44.80;;;;;;5085273;28;43086;-78
2024/01/23 08:47:51;;;;;;;;;;;15.50;45.10;;;;;;5085050;28;42837;-78
2024/01/23 08:50:16;;;;;;;;;;;15.50;45.20;;;;;;5083510;28;43023;-79
2024/01/23 08:52:43;;;;;;;;;;;15.80;45.60;;;;;;5085010;28;42992;-79
2024/01/23 08:55:09;;;;;;;;;;;15.60;45.90;;;;;;5085523;27;42835;-77
2024/01/23 08:57:34;;;;;;;;;;;15.80;45.90;;;;;;5084540;27;43027;-79
2024/01/23 09:00:00;;;;;;;;;;;15.80;46.30;;;;;;5084973;28;42930;-79
2024/01/23 09:02:27;;;;;;;;;;;15.80;46.70;;;;;;5084489;27;43352;-78
2024/01/23 09:04:52;;;;;;;;;;;15.90;46.90;;;;;;5085025;27;42992;-78
2024/01/23 09:07:18;;;;;;;;;;;15.80;47.20;;;;;;5085122;28;43007;-78
2024/01/23 09:09:44;;;;;;;;;;;15.80;47.40;;;;;;5085539;27;42817;-79
2024/01/23 09:12:10;;;;;;;;;;;16.00;47.80;;;;;;5085285;27;43091;-79
2024/01/23 09:14:35;;;;;;;;;;;15.80;47.90;;;;;;5088107;28;43001;-79
2024/01/23 09:17:01;;;;;;;;;;;16.00;48.00;;;;;;5088716;28;43477;-79
2024/01/23 09:19:27;;;;;;;;;;;16.10;48.30;;;;;;5088003;27;42987;-79
2024/01/23 09:21:53;;;;;;;;;;;16.10;48.50;;;;;;5088873;28;43423;-79
2024/01/23 09:24:19;;;;;;;;;;;16.10;48.60;;;;;;5087211;28;42954;-79
2024/01/23 09:26:44;;;;;;;;;;;15.90;48.70;;;;;;5088285;28;42820;-79
2024/01/23 09:29:10;;;;;;;;;;;16.10;48.80;;;;;;5087315;28;42952;-79
2024/01/23 09:31:43;;;;;;;;;;;16.10;49.20;;;;;;5088241;28;42893;-79
2024/01/23 09:34:08;;;;;;;;;;;16.00;48.80;;;;;;5088077;27;43024;-79
2024/01/23 09:36:34;;;;;;;;;;;16.20;58.10;;;;;;5086452;28;44308;-78
2024/01/23 09:38:59;;;;;;;;;;;16.20;58.60;;;;;;5088547;28;42865;-78
2024/01/23 09:41:26;;;;;;;;;;;16.30;54.60;;;;;;5087957;28;43471;-79
2024/01/23 09:43:52;;;;;;;;;;;16.30;53.10;;;;;;5088492;27;42957;-78
2024/01/23 09:46:18;;;;;;;;;;;16.30;52.80;;;;;;5087917;27;43587;-79
2024/01/23 09:48:45;;;;;;;;;;;16.20;53.60;;;;;;5088086;27;42983;-79
2024/01/23 09:51:13;;;;;;;;;;;16.20;53.00;;;;;;5087602;27;43808;-79
2024/01/23 09:53:39;;;;;;;;;;;16.30;53.40;;;;;;5088037;28;42938;-78
2024/01/23 09:56:06;;;;;;;;;;;16.20;53.30;;;;;;5088640;28;43563;-78
2024/01/23 09:58:32;;;;;;;;;;;16.50;53.20;;;;;;5094107;28;42911;-79
2024/01/23 10:00:59;;;;;;;;;;;16.30;54.20;;;;;;5090298;28;43952;-79
2024/01/23 10:03:26;;;;;;;;;;;16.40;53.70;;;;;;5087626;27;42967;-79
2024/01/23 10:05:52;;;;;;;;;;;16.40;53.70;;;;;;5087129;27;44372;-79
2024/01/23 10:08:18;;;;;;;;;;;16.50;53.90;;;;;;5088217;28;42858;-79
2024/01/23 10:10:43;;;;;;;;;;;16.50;54.10;;;;;;5087851;27;43704;-78
2024/01/23 10:13:13;;;;;;;;;;;16.30;54.60;;;;;;5087946;28;42954;-78
2024/01/23 10:15:38;;;;;;;;;;;16.40;53.00;;;;;;5087629;27;44386;-79
2024/01/23 10:18:04;;;;;;;;;;;16.50;55.60;;;;;;5087815;28;42841;-79
2024/01/23 10:20:30;;;;;;;;;;;16.40;55.20;;;;;;5087196;27;43416;-79
2024/01/23 10:22:58;;;;;;;;;;;16.50;55.40;;;;;;5086451;28;42842;-78
2024/01/23 10:25:25;;;;;;;;;;;16.40;56.00;;;;;;5086932;27;43391;-78
2024/01/23 10:27:51;;;;;;;;;;;16.50;56.10;;;;;;5087952;27;42972;-79
2024/01/23 10:30:17;;;;;;;;;;;16.60;56.00;;;;;;5087651;27;44392;-79
2024/01/23 10:32:42;;;;;;;;;;;16.70;56.50;;;;;;5087632;28;43015;-79
2024/01/23 10:35:11;;;;;;;;;;;16.50;56.00;;;;;;5087451;28;42841;-79
2024/01/23 10:37:36;;;;;;;;;;;16.60;56.50;;;;;;5087570;27;42871;-78
2024/01/23 10:40:03;;;;;;;;;;;16.50;56.60;;;;;;5086696;27;42919;-79
2024/01/23 10:42:29;;;;;;;;;;;16.50;56.40;;;;;;5087044;27;43006;-79
2024/01/23 10:44:55;;;;;;;;;;;16.70;63.10;;;;;;5085666;28;45309;-79
2024/01/23 10:47:21;;;;;;;;;;;16.70;59.30;;;;;;5087274;28;42889;-79
2024/01/23 10:49:47;;;;;;;;;;;16.50;59.40;;;;;;5087049;28;42983;-79
2024/01/23 10:52:17;;;;;;;;;;;16.80;60.80;;;;;;5086836;28;42825;-78
2024/01/23 10:54:43;;;;;;;;;;;16.80;60.20;;;;;;5087249;27;43567;-78
2024/01/23 10:57:12;;;;;;;;;;;16.70;60.20;;;;;;5087320;28;42923;-78
2024/01/23 10:59:38;;;;;;;;;;;16.60;60.60;;;;;;5087724;27;43020;-78
2024/01/23 11:02:13;;;;;;;;;;;16.60;59.80;;;;;;5087027;27;42771;-79
2024/01/23 11:04:39;;;;;;;;;;;16.70;58.50;;;;;;5087455;27;43991;-79
2024/01/23 11:07:22;;;;;;;;;;;16.60;61.60;;;;;;5087262;27;43022;-78
2024/01/23 11:09:56;;;;;;;;;;;16.70;59.30;;;;;;5086746;28;43007;-79
2024/01/23 11:12:40;;;;;;;;;;;16.70;59.60;;;;;;5086732;27;43067;-79
2024/01/23 11:15:24;;;;;;;;;;;16.70;59.10;;;;;;5084731;28;43823;-79
2024/01/23 11:17:51;;;;;;;;;;;16.70;59.10;;;;;;5087193;27;42944;-79
2024/01/23 11:20:17;;;;;;;;;;;16.70;60.50;;;;;;5086623;27;43038;-78
2024/01/23 11:22:43;;;;;;;;;;;16.80;60.20;;;;;;5085483;28;43013;-78
2024/01/23 11:25:11;;;;;;;;;;;16.60;59.10;;;;;;5086961;27;43523;-79
2024/01/23 11:27:38;;;;;;;;;;;16.70;58.60;;;;;;5086915;27;43088;-79
2024/01/23 11:30:07;;;;;;;;;;;16.70;57.50;;;;;;5086979;27;42877;-78
2024/01/23 11:32:33;;;;;;;;;;;16.60;56.60;;;;;;5086838;27;42943;-79
2024/01/23 11:35:00;;;;;;;;;;;16.40;56.70;;;;;;5086423;27;43560;-79
2024/01/23 11:37:31;;;;;;;;;;;16.70;57.10;;;;;;5085738;27;42990;-79
2024/01/23 11:40:00;;;;;;;;;;;16.70;55.10;;;;;;5085834;28;43031;-79
2024/01/23 11:42:40;;;;;;;;;;;16.80;55.20;;;;;;5086525;27;42879;-79
2024/01/23 11:45:27;;;;;;;;;;;16.70;55.00;;;;;;5086494;28;43917;-79
2024/01/23 11:47:56;;;;;;;;;;;16.80;55.60;;;;;;5086241;28;42927;-79
2024/01/23 11:50:23;;;;;;;;;;;16.90;54.90;;;;;;5084667;28;43514;-78
2024/01/23 11:52:49;;;;;;;;;;;16.80;56.50;;;;;;5086286;27;42952;-78
2024/01/23 11:55:15;;;;;;;;;;;16.90;56.40;;;;;;5086460;27;43400;-79
2024/01/23 11:57:40;;;;;;;;;;;16.80;56.40;;;;;;5086292;27;42902;-79
2024/01/23 12:00:06;;;;;;;;;;;16.80;56.30;;;;;;5086246;28;43689;-79
2024/01/23 12:02:33;;;;;;;;;;;16.80;55.90;;;;;;5086463;27;42943;-79
2024/01/23 12:04:59;;;;;;;;;;;17.10;56.60;;;;;;5085810;27;42775;-79
2024/01/23 12:07:24;;;;;;;;;;;16.80;56.40;;;;;;5086150;28;43000;-79
2024/01/23 12:09:50;;;;;;;;;;;16.80;56.40;;;;;;5085771;28;43511;-79
2024/01/23 12:12:16;;;;;;;;;;;16.90;56.40;;;;;;5085959;28;43015;-79
2024/01/23 12:14:41;;;;;;;;;;;16.90;63.20;;;;;;5085391;27;43027;-78
2024/01/23 12:17:07;;;;;;;;;;;16.90;54.20;;;;;;5088016;28;42927;-79
2024/01/23 12:19:43;;;;;;;;;;;17.00;53.50;;;;;;5093177;27;42932;-79
2024/01/23 12:22:08;;;;;;;;;;;16.90;52.00;;;;;;5085682;27;42865;-79
2024/01/23 12:24:34;;;;;;;;;;;17.00;53.20;;;;;;5085347;27;43417;-78
2024/01/23 12:26:59;;;;;;;;;;;17.00;53.10;;;;;;5085780;28;43016;-79
2024/01/23 12:29:25;;;;;;;;;;;16.80;53.10;;;;;;5085814;28;43625;-79
2024/01/23 12:31:50;;;;;;;;;;;16.90;53.00;;;;;;5085620;27;42990;-79
2024/01/23 12:34:18;;;;;;;;;;;17.00;53.00;;;;;;5085911;28;42998;-79
2024/01/23 12:36:48;;;;;;;;;;;16.90;53.00;;;;;;5086170;27;42937;-79
2024/01/23 12:39:15;;;;;;;;;;;16.90;53.00;;;;;;5085916;27;43596;-79
2024/01/23 12:41:41;;;;;;;;;;;16.80;52.90;;;;;;5085493;28;42885;-79
2024/01/23 12:44:07;;;;;;;;;;;17.00;53.60;;;;;;5085298;27;43390;-79
2024/01/23 12:46:32;;;;;;;;;;;16.90;53.00;;;;;;5084808;27;43029;-78
2024/01/23 12:49:07;;;;;;;;;;;17.00;53.10;;;;;;5084794;28;43480;-79
2024/01/23 12:51:36;;;;;;;;;;;16.90;51.90;;;;;;5085210;27;43039;-79
2024/01/23 12:54:02;;;;;;;;;;;17.00;52.00;;;;;;5084183;28;43517;-78
2024/01/23 12:56:28;;;;;;;;;;;16.90;53.10;;;;;;5085497;27;42866;-79
2024/01/23 12:58:54;;;;;;;;;;;17.10;53.00;;;;;;5085400;27;43331;-79
2024/01/23 13:01:19;;;;;;;;;;;17.00;53.10;;;;;;5085403;28;43550;-79
2024/01/23 13:03:45;;;;;;;;;;;17.00;53.00;;;;;;5084964;28;42951;-78
2024/01/23 13:06:11;;;;;;;;;;;17.00;53.10;;;;;;5085017;27;42925;-78
2024/01/23 13:08:36;;;;;;;;;;;17.00;53.10;;;;;;5085463;28;43773;-79
2024/01/23 13:11:02;;;;;;;;;;;16.90;53.00;;;;;;5083598;28;42875;-79
2024/01/23 13:13:28;;;;;;;;;;;17.00;53.50;;;;;;5085345;28;43963;-78
2024/01/23 13:15:53;;;;;;;;;;;16.90;53.10;;;;;;5085326;27;42878;-79
2024/01/23 13:18:19;;;;;;;;;;;17.00;53.00;;;;;;5085323;28;43537;-79
2024/01/23 13:20:45;;;;;;;;;;;17.10;53.00;;;;;;5084551;27;42800;-79
2024/01/23 13:23:10;;;;;;;;;;;17.00;52.60;;;;;;5084801;28;43982;-79
2024/01/23 13:25:36;;;;;;;;;;;17.00;52.60;;;;;;5084277;28;43043;-79
2024/01/23 13:28:01;;;;;;;;;;;16.90;52.80;;;;;;5084806;28;42986;-79
2024/01/23 13:30:30;;;;;;;;;;;17.00;52.90;;;;;;5084546;28;42916;-79
2024/01/23 13:32:55;;;;;;;;;;;17.00;52.80;;;;;;5084845;27;43682;-79
2024/01/23 13:35:21;;;;;;;;;;;17.00;52.70;;;;;;5084784;28;42869;-79
2024/01/23 13:37:47;;;;;;;;;;;17.20;53.50;;;;;;5084739;27;43285;-79
2024/01/23 13:40:12;;;;;;;;;;;17.10;52.70;;;;;;5084361;27;42905;-80
2024/01/23 13:42:41;;;;;;;;;;;17.10;52.60;;;;;;5084812;27;43034;-79
2024/01/23 13:45:06;;;;;;;;;;;17.10;51.70;;;;;;5085111;28;42768;-79
2024/01/23 13:47:42;;;;;;;;;;;17.20;52.60;;;;;;5083168;28;44806;-79
2024/01/23 13:50:08;;;;;;;;;;;17.00;52.40;;;;;;5083732;27;42904;-79
2024/01/23 13:52:35;;;;;;;;;;;16.80;52.20;;;;;;5084379;27;43053;-79
2024/01/23 13:55:00;;;;;;;;;;;17.10;52.40;;;;;;5084404;27;42927;-79
2024/01/23 13:57:26;;;;;;;;;;;17.00;52.30;;;;;;5084093;28;42878;-80
2024/01/23 13:59:51;;;;;;;;;;;17.10;52.30;;;;;;5086172;28;43011;-79
2024/01/23 14:02:17;;;;;;;;;;;17.10;52.80;;;;;;5087552;28;42983;-79
2024/01/23 14:04:42;;;;;;;;;;;17.10;52.20;;;;;;5086877;28;42965;-79
2024/01/23 14:07:08;;;;;;;;;;;17.20;52.20;;;;;;5087828;28;43638;-79
2024/01/23 14:09:35;;;;;;;;;;;17.00;52.00;;;;;;5087993;28;42927;-79